Time;durP1;ratioP1;P1;durP2;ratioP2;P2;SDS_P1;SDS_P2;PMS_P1;PMS_P2;Temp;Humidity;BMP_temperature;BMP_pressure;BME280_temperature;BME280_humidity;BME280_pressure;Samples;Min_cycle;Max_cycle;Signal;HPM_P1;HPM_P2
2022/06/18 00:00:43;;;;;;;;;;;15.90;99.90;;;;;;4589118;19;19952;-36
2022/06/18 00:02:15;;;;;;;;;;;15.90;99.90;;;;;;4589516;19;19919;-32
2022/06/18 00:03:46;;;;;;;;;;;15.90;99.90;;;;;;4589789;19;19915;-31
2022/06/18 00:05:18;;;;;;;;;;;15.90;99.90;;;;;;4589072;19;19963;-35
2022/06/18 00:06:50;;;;;;;;;;;15.90;99.90;;;;;;4589545;19;20001;-31
2022/06/18 00:08:22;;;;;;;;;;;15.90;99.90;;;;;;4588930;19;19925;-34
2022/06/18 00:09:57;;;;;;;;;;;15.90;99.90;;;;;;4589550;19;19915;-32
2022/06/18 00:13:42;;;;;;;;;;;15.90;99.90;;;;;;4589244;19;19982;-32
2022/06/18 00:15:17;;;;;;;;;;;15.90;99.90;;;;;;4587614;19;19935;-34
2022/06/18 00:16:48;;;;;;;;;;;15.80;99.90;;;;;;4589104;19;19914;-31
2022/06/18 00:18:19;;;;;;;;;;;15.80;99.90;;;;;;4588435;19;20380;-34
2022/06/18 00:19:50;;;;;;;;;;;15.80;99.90;;;;;;4588937;19;19921;-33
2022/06/18 00:21:22;;;;;;;;;;;15.80;99.90;;;;;;4589023;19;19914;-31
2022/06/18 00:22:56;;;;;;;;;;;15.80;99.90;;;;;;4589282;19;20014;-34
2022/06/18 00:24:28;;;;;;;;;;;15.80;99.90;;;;;;4589010;19;19911;-32
2022/06/18 00:25:59;;;;;;;;;;;15.80;99.90;;;;;;4588681;19;20426;-34
2022/06/18 00:27:30;;;;;;;;;;;15.80;99.90;;;;;;4589026;19;19943;-32
2022/06/18 00:29:01;;;;;;;;;;;15.80;99.90;;;;;;4589200;19;19919;-34
2022/06/18 00:30:32;;;;;;;;;;;15.80;99.90;;;;;;4588169;19;20336;-32
2022/06/18 00:32:03;;;;;;;;;;;15.90;99.90;;;;;;4588651;19;19919;-33
2022/06/18 00:33:40;;;;;;;;;;;15.80;99.90;;;;;;4589152;19;19957;-32
2022/06/18 00:35:12;;;;;;;;;;;15.80;99.90;;;;;;4589497;19;19915;-32
2022/06/18 00:36:43;;;;;;;;;;;15.80;99.90;;;;;;4589858;19;20395;-32
2022/06/18 00:38:24;;;;;;;;;;;15.80;99.90;;;;;;4588887;19;19911;-33
2022/06/18 00:39:55;;;;;;;;;;;15.80;99.90;;;;;;4590785;19;19938;-35
2022/06/18 00:41:26;;;;;;;;;;;15.80;99.90;;;;;;4590834;19;19978;-32
2022/06/18 00:42:59;;;;;;;;;;;15.70;99.90;;;;;;4591108;19;19911;-32
2022/06/18 00:44:31;;;;;;;;;;;15.80;99.90;;;;;;4590542;19;20241;-31
2022/06/18 00:46:08;;;;;;;;;;;15.70;99.90;;;;;;4590984;19;19918;-36
2022/06/18 00:47:42;;;;;;;;;;;15.70;99.90;;;;;;4589474;19;20469;-33
2022/06/18 00:49:16;;;;;;;;;;;15.70;99.90;;;;;;4590645;19;19943;-32
2022/06/18 00:50:57;;;;;;;;;;;15.70;99.90;;;;;;4589684;19;19931;-32
2022/06/18 00:52:33;;;;;;;;;;;15.80;99.90;;;;;;4589424;19;20395;-32
2022/06/18 00:54:10;;;;;;;;;;;15.80;99.90;;;;;;4589853;19;19919;-32
2022/06/18 00:55:50;;;;;;;;;;;15.70;99.90;;;;;;4591305;19;20357;-32
2022/06/18 00:57:44;;;;;;;;;;;15.70;99.90;;;;;;4589058;19;19923;-34
2022/06/18 00:59:37;;;;;;;;;;;15.70;99.90;;;;;;4588194;19;20338;-32
2022/06/18 01:01:22;;;;;;;;;;;15.70;99.90;;;;;;4588184;19;19919;-32
2022/06/18 01:02:53;;;;;;;;;;;15.60;99.90;;;;;;4588308;19;19954;-32
2022/06/18 01:04:24;;;;;;;;;;;15.60;99.90;;;;;;4588384;19;19933;-36
2022/06/18 01:05:56;;;;;;;;;;;15.60;99.90;;;;;;4588896;19;19915;-31
2022/06/18 01:07:27;;;;;;;;;;;15.60;99.90;;;;;;4587937;19;20323;-32
2022/06/18 01:09:02;;;;;;;;;;;15.60;99.90;;;;;;4588057;19;19918;-32
2022/06/18 01:10:34;;;;;;;;;;;15.70;99.90;;;;;;4587857;19;19986;-36
2022/06/18 01:12:05;;;;;;;;;;;15.70;99.90;;;;;;4587976;19;19914;-33
2022/06/18 01:13:36;;;;;;;;;;;15.70;99.90;;;;;;4587915;19;20020;-31
2022/06/18 01:15:08;;;;;;;;;;;15.70;99.90;;;;;;4588411;19;19922;-33
2022/06/18 01:16:39;;;;;;;;;;;15.70;99.90;;;;;;4588371;19;19910;-32
2022/06/18 01:18:10;;;;;;;;;;;15.70;99.90;;;;;;4587216;19;19914;-31
2022/06/18 01:19:47;;;;;;;;;;;15.70;99.90;;;;;;4588025;19;19939;-33
2022/06/18 01:21:27;;;;;;;;;;;15.70;99.90;;;;;;4587664;19;19922;-31
2022/06/18 01:23:07;;;;;;;;;;;15.70;99.90;;;;;;4588597;19;19910;-32
2022/06/18 01:24:39;;;;;;;;;;;15.60;99.90;;;;;;4588045;19;19945;-35
2022/06/18 01:26:10;;;;;;;;;;;15.60;99.90;;;;;;4587868;19;19923;-32
2022/06/18 01:27:41;;;;;;;;;;;15.60;99.90;;;;;;4591873;19;19912;-32
2022/06/18 01:29:12;;;;;;;;;;;15.60;99.90;;;;;;4592828;19;20333;-33
2022/06/18 01:30:43;;;;;;;;;;;15.60;99.90;;;;;;4592030;19;20037;-32
2022/06/18 01:32:15;;;;;;;;;;;15.60;99.90;;;;;;4592385;19;19911;-34
2022/06/18 01:33:47;;;;;;;;;;;15.60;99.90;;;;;;4592640;19;19926;-32
2022/06/18 01:35:18;;;;;;;;;;;15.60;99.90;;;;;;4592693;19;19915;-33
2022/06/18 01:36:49;;;;;;;;;;;15.60;99.90;;;;;;4593175;19;19918;-31
2022/06/18 01:38:20;;;;;;;;;;;15.60;99.90;;;;;;4592557;19;19911;-33
2022/06/18 01:39:51;;;;;;;;;;;15.60;99.90;;;;;;4594358;19;19939;-32
2022/06/18 01:43:16;;;;;;;;;;;15.60;99.90;;;;;;4594082;19;19919;-32
2022/06/18 01:44:49;;;;;;;;;;;15.60;99.90;;;;;;4594362;19;20247;-32
2022/06/18 01:46:20;;;;;;;;;;;15.60;99.90;;;;;;4593154;19;20001;-32
2022/06/18 01:47:54;;;;;;;;;;;15.60;99.90;;;;;;4594241;19;19918;-32
2022/06/18 01:49:30;;;;;;;;;;;15.60;99.90;;;;;;4593922;19;19926;-34
2022/06/18 01:51:12;;;;;;;;;;;15.60;99.90;;;;;;4593105;19;19927;-33
2022/06/18 01:52:44;;;;;;;;;;;15.60;99.90;;;;;;4593143;19;20030;-31
2022/06/18 01:54:18;;;;;;;;;;;15.60;99.90;;;;;;4593527;19;19935;-32
2022/06/18 01:56:16;;;;;;;;;;;15.60;99.90;;;;;;4593788;19;19919;-32
2022/06/18 01:57:51;;;;;;;;;;;15.60;99.90;;;;;;4591308;19;20331;-32
2022/06/18 01:59:25;;;;;;;;;;;15.60;99.90;;;;;;4591719;19;19917;-33
2022/06/18 02:00:57;;;;;;;;;;;15.60;99.90;;;;;;4592181;19;19915;-32
2022/06/18 02:02:28;;;;;;;;;;;15.60;99.90;;;;;;4591707;19;20373;-32
2022/06/18 02:03:59;;;;;;;;;;;15.60;99.90;;;;;;4591467;19;19918;-32
2022/06/18 02:05:30;;;;;;;;;;;15.60;99.90;;;;;;4591710;19;19927;-33
2022/06/18 02:07:02;;;;;;;;;;;15.70;99.90;;;;;;4591894;19;19911;-32
2022/06/18 02:08:33;;;;;;;;;;;15.70;99.90;;;;;;4591921;19;19990;-31
2022/06/18 02:10:05;;;;;;;;;;;15.60;99.90;;;;;;4591617;19;20352;-33
2022/06/18 02:11:36;;;;;;;;;;;15.60;99.90;;;;;;4591732;19;19911;-32
2022/06/18 02:13:07;;;;;;;;;;;15.60;99.90;;;;;;4591602;19;19955;-34
2022/06/18 02:14:39;;;;;;;;;;;15.60;99.90;;;;;;4591977;19;19947;-33
2022/06/18 02:16:16;;;;;;;;;;;15.60;99.90;;;;;;4591311;19;19918;-32
2022/06/18 02:17:47;;;;;;;;;;;15.60;99.90;;;;;;4591500;19;19940;-33
2022/06/18 02:19:17;;;;;;;;;;;15.70;99.90;;;;;;4591785;19;19919;-32
2022/06/18 02:20:49;;;;;;;;;;;15.70;99.90;;;;;;4591310;19;20120;-32
2022/06/18 02:22:21;;;;;;;;;;;15.70;99.90;;;;;;4591076;19;19919;-31
2022/06/18 02:23:52;;;;;;;;;;;15.60;99.90;;;;;;4591131;19;19974;-32
2022/06/18 02:25:24;;;;;;;;;;;15.60;99.90;;;;;;4591637;19;19915;-32
2022/06/18 02:26:55;;;;;;;;;;;15.70;99.90;;;;;;4590980;19;20322;-32
2022/06/18 02:28:30;;;;;;;;;;;15.60;99.90;;;;;;4591007;19;19918;-37
2022/06/18 02:30:01;;;;;;;;;;;15.60;99.90;;;;;;4590925;19;20001;-33
2022/06/18 02:31:34;;;;;;;;;;;15.60;99.90;;;;;;4591589;19;20509;-32
2022/06/18 02:33:14;;;;;;;;;;;15.60;99.90;;;;;;4590828;19;20247;-33
2022/06/18 02:34:45;;;;;;;;;;;15.60;99.90;;;;;;4591516;19;19949;-35
2022/06/18 02:36:16;;;;;;;;;;;15.70;99.90;;;;;;4593435;19;19931;-32
2022/06/18 02:37:47;;;;;;;;;;;15.70;99.90;;;;;;4593317;19;19919;-32
2022/06/18 02:39:24;;;;;;;;;;;15.70;99.90;;;;;;4591497;19;19966;-32
2022/06/18 02:40:56;;;;;;;;;;;15.70;99.90;;;;;;4593062;19;20329;-34
2022/06/18 02:42:28;;;;;;;;;;;15.70;99.90;;;;;;4592931;19;19919;-31
2022/06/18 02:43:59;;;;;;;;;;;15.70;99.90;;;;;;4593704;19;20407;-33
2022/06/18 02:45:30;;;;;;;;;;;15.70;99.90;;;;;;4592821;19;19922;-32
2022/06/18 02:47:01;;;;;;;;;;;15.80;99.90;;;;;;4593195;19;19948;-33
2022/06/18 02:48:33;;;;;;;;;;;15.70;99.90;;;;;;4592543;19;19914;-33
2022/06/18 02:50:05;;;;;;;;;;;15.80;99.90;;;;;;4593354;19;19919;-32
2022/06/18 02:51:39;;;;;;;;;;;15.80;99.90;;;;;;4592699;19;19919;-33
2022/06/18 02:53:13;;;;;;;;;;;15.80;99.90;;;;;;4592694;19;20357;-33
2022/06/18 02:54:44;;;;;;;;;;;15.80;99.90;;;;;;4592201;19;19990;-33
2022/06/18 02:56:15;;;;;;;;;;;15.80;99.90;;;;;;4593002;19;19907;-33
2022/06/18 02:57:47;;;;;;;;;;;15.80;99.90;;;;;;4592469;19;19915;-32
2022/06/18 02:59:18;;;;;;;;;;;15.80;99.90;;;;;;4593282;19;20329;-34
2022/06/18 03:00:53;;;;;;;;;;;15.80;99.90;;;;;;4593275;19;19911;-32
2022/06/18 03:02:24;;;;;;;;;;;15.80;99.90;;;;;;4592386;19;20349;-32
2022/06/18 03:03:56;;;;;;;;;;;15.80;99.90;;;;;;4590214;19;19945;-33
2022/06/18 03:05:28;;;;;;;;;;;15.80;99.90;;;;;;4591871;19;20251;-32
2022/06/18 03:06:59;;;;;;;;;;;15.80;99.90;;;;;;4592237;19;19910;-33
2022/06/18 03:08:30;;;;;;;;;;;15.80;99.90;;;;;;4592360;19;19918;-35
2022/06/18 03:12:09;;;;;;;;;;;15.80;99.90;;;;;;4592533;19;19923;-34
2022/06/18 03:13:40;;;;;;;;;;;15.80;99.90;;;;;;4592640;19;19915;-34
2022/06/18 03:15:11;;;;;;;;;;;15.80;99.90;;;;;;4590283;19;19921;-32
2022/06/18 03:16:42;;;;;;;;;;;15.80;99.90;;;;;;4591500;19;19939;-35
2022/06/18 03:18:13;;;;;;;;;;;15.80;99.90;;;;;;4591813;19;19919;-35
2022/06/18 03:19:47;;;;;;;;;;;15.90;99.90;;;;;;4592745;19;19942;-34
2022/06/18 03:21:36;;;;;;;;;;;15.80;99.90;;;;;;4591211;19;19925;-32
2022/06/18 03:23:09;;;;;;;;;;;15.80;99.90;;;;;;4592000;19;19982;-31
2022/06/18 03:24:41;;;;;;;;;;;15.90;99.90;;;;;;4591203;19;19971;-32
2022/06/18 03:26:12;;;;;;;;;;;15.90;99.90;;;;;;4591999;19;19914;-33
2022/06/18 03:27:43;;;;;;;;;;;15.80;99.90;;;;;;4592384;19;19915;-35
2022/06/18 03:29:14;;;;;;;;;;;15.90;99.90;;;;;;4591979;19;19928;-33
2022/06/18 03:30:45;;;;;;;;;;;15.90;99.90;;;;;;4592313;19;19970;-34
2022/06/18 03:32:16;;;;;;;;;;;15.90;99.90;;;;;;4592498;19;19931;-32
2022/06/18 03:33:47;;;;;;;;;;;15.90;99.90;;;;;;4592290;19;20333;-31
2022/06/18 03:35:18;;;;;;;;;;;15.90;99.90;;;;;;4590643;19;19940;-34
2022/06/18 03:36:50;;;;;;;;;;;15.90;99.90;;;;;;4591437;19;20286;-34
2022/06/18 03:38:21;;;;;;;;;;;15.90;99.90;;;;;;4590223;19;20344;-32
2022/06/18 03:39:52;;;;;;;;;;;16.00;99.90;;;;;;4591370;19;19922;-32
2022/06/18 03:41:23;;;;;;;;;;;16.00;99.90;;;;;;4591664;19;19923;-32
2022/06/18 03:42:54;;;;;;;;;;;16.00;99.90;;;;;;4592184;19;19926;-34
2022/06/18 03:44:25;;;;;;;;;;;16.00;99.90;;;;;;4592657;19;19925;-34
2022/06/18 03:46:00;;;;;;;;;;;16.00;99.90;;;;;;4591762;19;19911;-32
2022/06/18 03:47:31;;;;;;;;;;;16.10;99.90;;;;;;4591649;19;19925;-34
2022/06/18 03:49:02;;;;;;;;;;;16.10;99.90;;;;;;4592347;19;19919;-32
2022/06/18 03:50:34;;;;;;;;;;;16.10;99.90;;;;;;4589078;19;19970;-33
2022/06/18 03:52:05;;;;;;;;;;;16.10;99.90;;;;;;4591435;19;20246;-34
2022/06/18 03:53:36;;;;;;;;;;;16.10;99.90;;;;;;4591944;19;19970;-34
2022/06/18 03:55:17;;;;;;;;;;;16.10;99.90;;;;;;4589553;19;19978;-32
2022/06/18 03:56:48;;;;;;;;;;;16.10;99.90;;;;;;4590732;19;19915;-34
2022/06/18 03:58:19;;;;;;;;;;;16.10;99.90;;;;;;4590634;19;20135;-33
2022/06/18 03:59:50;;;;;;;;;;;16.20;99.90;;;;;;4591944;19;19923;-37
2022/06/18 04:01:23;;;;;;;;;;;16.20;99.90;;;;;;4591645;19;19975;-34
2022/06/18 04:02:54;;;;;;;;;;;16.10;99.90;;;;;;4592209;19;19929;-33
2022/06/18 04:04:25;;;;;;;;;;;16.20;99.90;;;;;;4591468;19;19933;-35
2022/06/18 04:05:56;;;;;;;;;;;16.20;99.90;;;;;;4591796;19;20352;-34
2022/06/18 04:07:27;;;;;;;;;;;16.20;99.90;;;;;;4590603;19;19918;-33
2022/06/18 04:08:58;;;;;;;;;;;16.20;99.90;;;;;;4590782;19;19923;-33
2022/06/18 04:10:29;;;;;;;;;;;16.20;99.90;;;;;;4591462;19;20387;-35
2022/06/18 04:12:00;;;;;;;;;;;16.20;99.90;;;;;;4591259;19;19918;-35
2022/06/18 04:13:31;;;;;;;;;;;16.20;99.90;;;;;;4592039;19;19915;-32
2022/06/18 04:15:02;;;;;;;;;;;16.20;99.90;;;;;;4590975;19;19911;-33
2022/06/18 04:16:33;;;;;;;;;;;16.20;99.90;;;;;;4591301;19;19914;-34
2022/06/18 04:18:04;;;;;;;;;;;16.30;99.90;;;;;;4589887;19;19915;-35
2022/06/18 04:19:36;;;;;;;;;;;16.30;99.90;;;;;;4590732;19;20302;-36
2022/06/18 04:21:07;;;;;;;;;;;16.30;99.90;;;;;;4590990;19;19925;-36
2022/06/18 04:22:37;;;;;;;;;;;16.30;99.90;;;;;;4591148;19;19914;-32
2022/06/18 04:24:08;;;;;;;;;;;16.40;99.90;;;;;;4591751;19;19979;-35
2022/06/18 04:25:40;;;;;;;;;;;16.40;99.90;;;;;;4590821;19;19918;-33
2022/06/18 04:27:11;;;;;;;;;;;16.40;99.90;;;;;;4589921;19;19935;-32
2022/06/18 04:28:42;;;;;;;;;;;16.40;99.90;;;;;;4590523;19;19915;-33
2022/06/18 04:30:13;;;;;;;;;;;16.40;99.90;;;;;;4591486;19;19928;-32
2022/06/18 04:31:44;;;;;;;;;;;16.50;99.90;;;;;;4589683;19;20000;-33
2022/06/18 04:33:15;;;;;;;;;;;16.50;99.90;;;;;;4589919;19;19926;-33
2022/06/18 04:34:46;;;;;;;;;;;16.50;99.90;;;;;;4590111;19;19911;-32
2022/06/18 04:36:37;;;;;;;;;;;16.50;99.90;;;;;;4590569;19;19911;-32
2022/06/18 04:38:09;;;;;;;;;;;16.50;99.90;;;;;;4590036;19;20507;-36
2022/06/18 04:39:40;;;;;;;;;;;16.60;99.90;;;;;;4590913;19;19917;-32
2022/06/18 04:41:11;;;;;;;;;;;16.60;99.90;;;;;;4589863;19;19971;-32
2022/06/18 04:42:42;;;;;;;;;;;16.60;99.90;;;;;;4590513;19;19915;-33
2022/06/18 04:44:14;;;;;;;;;;;16.60;99.90;;;;;;4590491;19;19982;-34
2022/06/18 04:45:45;;;;;;;;;;;16.60;99.90;;;;;;4589829;19;20386;-33
2022/06/18 04:47:16;;;;;;;;;;;16.60;99.90;;;;;;4590011;19;19911;-32
2022/06/18 04:48:47;;;;;;;;;;;16.60;99.90;;;;;;4590845;19;20261;-33
2022/06/18 04:50:19;;;;;;;;;;;16.60;99.90;;;;;;4589975;19;19930;-32
2022/06/18 04:51:50;;;;;;;;;;;16.70;99.90;;;;;;4589922;19;19917;-32
2022/06/18 04:53:21;;;;;;;;;;;16.70;99.90;;;;;;4591798;19;19911;-33
2022/06/18 04:54:52;;;;;;;;;;;16.70;99.90;;;;;;4589182;19;19951;-34
2022/06/18 04:56:23;;;;;;;;;;;16.70;99.90;;;;;;4590384;19;19923;-31
2022/06/18 04:57:54;;;;;;;;;;;16.70;99.90;;;;;;4590404;19;20246;-34
2022/06/18 04:59:25;;;;;;;;;;;16.70;99.90;;;;;;4590590;19;19919;-32
2022/06/18 05:00:56;;;;;;;;;;;16.70;99.90;;;;;;4590286;19;19910;-33
2022/06/18 05:02:30;;;;;;;;;;;16.70;99.90;;;;;;4594174;19;19930;-34
2022/06/18 05:04:01;;;;;;;;;;;16.70;99.90;;;;;;4594037;19;20373;-31
2022/06/18 05:05:32;;;;;;;;;;;16.80;99.90;;;;;;4594495;19;19918;-31
2022/06/18 05:07:03;;;;;;;;;;;16.80;99.90;;;;;;4594824;19;19922;-31
2022/06/18 05:08:34;;;;;;;;;;;16.80;99.90;;;;;;4595149;19;20001;-33
2022/06/18 05:10:05;;;;;;;;;;;16.90;99.90;;;;;;4595431;19;19947;-32
2022/06/18 05:11:36;;;;;;;;;;;16.90;99.90;;;;;;4595306;19;19922;-32
2022/06/18 05:13:07;;;;;;;;;;;16.90;99.90;;;;;;4594868;19;19914;-34
2022/06/18 05:14:39;;;;;;;;;;;16.80;99.90;;;;;;4595287;19;19979;-32
2022/06/18 05:16:10;;;;;;;;;;;16.90;99.90;;;;;;4595074;19;19915;-31
2022/06/18 05:17:43;;;;;;;;;;;16.90;99.90;;;;;;4593518;19;20301;-34
2022/06/18 05:19:24;;;;;;;;;;;16.90;99.90;;;;;;4592619;19;20353;-31
2022/06/18 05:20:55;;;;;;;;;;;16.90;99.90;;;;;;4595091;19;20268;-36
2022/06/18 05:22:27;;;;;;;;;;;16.90;99.90;;;;;;4596788;19;19919;-34
2022/06/18 05:23:58;;;;;;;;;;;16.90;99.90;;;;;;4594565;19;19932;-31
2022/06/18 05:25:29;;;;;;;;;;;17.00;99.90;;;;;;4593644;19;20427;-32
2022/06/18 05:27:00;;;;;;;;;;;17.00;99.90;;;;;;4595637;19;19952;-34
2022/06/18 05:28:31;;;;;;;;;;;17.00;99.90;;;;;;4594137;19;19919;-34
2022/06/18 05:30:04;;;;;;;;;;;17.00;99.90;;;;;;4593337;19;19910;-31
2022/06/18 05:31:35;;;;;;;;;;;17.10;99.90;;;;;;4594625;19;19925;-35
2022/06/18 05:33:06;;;;;;;;;;;17.10;99.90;;;;;;4591735;19;19915;-34
2022/06/18 05:34:37;;;;;;;;;;;17.10;99.90;;;;;;4595294;19;19922;-33
2022/06/18 05:36:09;;;;;;;;;;;17.20;99.90;;;;;;4594956;19;19922;-32
2022/06/18 05:37:40;;;;;;;;;;;17.20;99.90;;;;;;4594456;19;19936;-32
2022/06/18 05:39:13;;;;;;;;;;;17.20;99.90;;;;;;4592865;19;19911;-32
2022/06/18 05:40:44;;;;;;;;;;;17.20;99.90;;;;;;4592584;19;19915;-33
2022/06/18 05:42:15;;;;;;;;;;;17.20;99.90;;;;;;4593075;19;20004;-33
2022/06/18 05:43:46;;;;;;;;;;;17.30;99.90;;;;;;4593185;19;20436;-31
2022/06/18 05:45:17;;;;;;;;;;;17.30;99.90;;;;;;4592687;19;19982;-32
2022/06/18 05:46:48;;;;;;;;;;;17.30;99.90;;;;;;4592193;19;19935;-32
2022/06/18 05:48:19;;;;;;;;;;;17.30;99.90;;;;;;4595386;19;20328;-34
2022/06/18 05:49:53;;;;;;;;;;;17.30;99.90;;;;;;4594954;19;19984;-35
2022/06/18 05:51:25;;;;;;;;;;;17.40;99.90;;;;;;4592973;19;19945;-36
2022/06/18 05:52:56;;;;;;;;;;;17.40;99.90;;;;;;4594119;19;19907;-34
2022/06/18 05:54:27;;;;;;;;;;;17.50;99.90;;;;;;4592865;19;19939;-34
2022/06/18 05:55:58;;;;;;;;;;;17.60;99.90;;;;;;4593280;19;20253;-39
2022/06/18 05:57:29;;;;;;;;;;;17.60;99.90;;;;;;4592756;19;19974;-35
2022/06/18 05:59:01;;;;;;;;;;;17.60;99.90;;;;;;4590052;19;19911;-34
2022/06/18 06:00:32;;;;;;;;;;;17.60;99.90;;;;;;4591513;19;19917;-32
2022/06/18 06:02:03;;;;;;;;;;;17.60;99.90;;;;;;4592253;19;19915;-35
2022/06/18 06:03:34;;;;;;;;;;;17.50;99.90;;;;;;4594556;19;20354;-40
2022/06/18 06:05:05;;;;;;;;;;;17.30;99.90;;;;;;4594338;19;19950;-33
2022/06/18 06:06:36;;;;;;;;;;;17.30;99.90;;;;;;4594077;19;19922;-32
2022/06/18 06:08:09;;;;;;;;;;;17.30;99.90;;;;;;4592943;19;19923;-36
2022/06/18 06:11:30;;;;;;;;;;;17.20;99.90;;;;;;4592172;19;19911;-35
2022/06/18 06:13:01;;;;;;;;;;;17.20;99.90;;;;;;4591306;19;20412;-32
2022/06/18 06:14:32;;;;;;;;;;;17.10;99.90;;;;;;4591633;19;19926;-35
2022/06/18 06:16:03;;;;;;;;;;;17.10;99.90;;;;;;4594374;19;20071;-35
2022/06/18 06:17:34;;;;;;;;;;;17.10;99.90;;;;;;4592864;19;19934;-38
2022/06/18 06:19:05;;;;;;;;;;;17.10;99.90;;;;;;4592509;19;20347;-36
2022/06/18 06:20:38;;;;;;;;;;;17.10;99.90;;;;;;4594377;19;20234;-34
2022/06/18 06:22:09;;;;;;;;;;;17.10;99.90;;;;;;4593514;19;19956;-33
2022/06/18 06:23:40;;;;;;;;;;;17.10;99.90;;;;;;4594490;19;19926;-32
2022/06/18 06:25:11;;;;;;;;;;;17.20;99.90;;;;;;4590557;19;19915;-34
2022/06/18 06:26:42;;;;;;;;;;;17.20;99.90;;;;;;4591547;19;20337;-33
2022/06/18 06:28:14;;;;;;;;;;;17.30;99.90;;;;;;4591633;19;20282;-32
2022/06/18 06:29:45;;;;;;;;;;;17.30;99.90;;;;;;4591946;19;19914;-32
2022/06/18 06:31:16;;;;;;;;;;;17.30;99.90;;;;;;4592605;19;19946;-35
2022/06/18 06:32:47;;;;;;;;;;;17.40;99.90;;;;;;4593115;19;19914;-31
2022/06/18 06:34:18;;;;;;;;;;;17.40;99.90;;;;;;4592328;19;19922;-33
2022/06/18 06:35:50;;;;;;;;;;;17.40;99.90;;;;;;4591711;19;20245;-33
2022/06/18 06:37:21;;;;;;;;;;;17.50;99.90;;;;;;4593468;19;19915;-33
2022/06/18 06:38:52;;;;;;;;;;;17.50;99.90;;;;;;4591196;19;19930;-35
2022/06/18 06:40:24;;;;;;;;;;;17.50;99.90;;;;;;4593887;19;19927;-34
2022/06/18 06:41:55;;;;;;;;;;;17.40;99.90;;;;;;4593823;19;19944;-33
2022/06/18 06:43:25;;;;;;;;;;;17.40;99.90;;;;;;4593275;19;19922;-33
2022/06/18 06:44:58;;;;;;;;;;;17.30;99.90;;;;;;4593476;19;19930;-34
2022/06/18 06:46:29;;;;;;;;;;;17.40;99.90;;;;;;4592788;19;19975;-36
2022/06/18 06:48:00;;;;;;;;;;;17.50;99.90;;;;;;4592904;19;20361;-33
2022/06/18 06:49:31;;;;;;;;;;;17.50;99.90;;;;;;4591778;19;20000;-34
2022/06/18 06:51:04;;;;;;;;;;;17.40;99.90;;;;;;4592752;19;19915;-34
2022/06/18 06:52:35;;;;;;;;;;;17.40;99.90;;;;;;4592521;19;19923;-34
2022/06/18 06:54:06;;;;;;;;;;;17.50;99.90;;;;;;4592455;19;19923;-37
2022/06/18 06:57:27;;;;;;;;;;;17.40;99.90;;;;;;4593683;19;19925;-37
2022/06/18 06:58:59;;;;;;;;;;;17.40;99.90;;;;;;4591099;19;19931;-34
2022/06/18 07:00:31;;;;;;;;;;;17.30;99.90;;;;;;4593290;19;20249;-36
2022/06/18 07:02:02;;;;;;;;;;;17.30;99.90;;;;;;4591554;19;19940;-34
2022/06/18 07:03:33;;;;;;;;;;;17.30;99.90;;;;;;4592958;19;19952;-32
2022/06/18 07:05:04;;;;;;;;;;;17.30;99.90;;;;;;4592169;19;19979;-35
2022/06/18 07:06:35;;;;;;;;;;;17.30;99.90;;;;;;4591555;19;20332;-35
2022/06/18 07:08:07;;;;;;;;;;;17.30;99.90;;;;;;4593297;19;19938;-36
2022/06/18 07:09:37;;;;;;;;;;;17.30;99.90;;;;;;4592181;19;19927;-39
2022/06/18 07:11:09;;;;;;;;;;;17.30;99.90;;;;;;4590124;19;20319;-35
2022/06/18 07:12:40;;;;;;;;;;;17.30;99.90;;;;;;4593408;19;20051;-34
2022/06/18 07:14:11;;;;;;;;;;;17.30;99.90;;;;;;4591171;19;20636;-36
2022/06/18 07:15:42;;;;;;;;;;;17.20;99.90;;;;;;4592681;19;19919;-38
2022/06/18 07:17:16;;;;;;;;;;;17.30;99.90;;;;;;4592177;19;19974;-36
2022/06/18 07:18:49;;;;;;;;;;;17.20;99.90;;;;;;4591262;19;20251;-34
2022/06/18 07:20:21;;;;;;;;;;;17.20;99.90;;;;;;4591522;19;19926;-34
2022/06/18 07:21:52;;;;;;;;;;;17.20;99.90;;;;;;4590663;19;19930;-36
2022/06/18 07:23:23;;;;;;;;;;;17.20;99.90;;;;;;4593341;19;19956;-36
2022/06/18 07:24:54;;;;;;;;;;;17.20;99.90;;;;;;4591528;19;19919;-33
2022/06/18 07:26:25;;;;;;;;;;;17.30;99.90;;;;;;4592126;19;19914;-33
2022/06/18 07:27:56;;;;;;;;;;;17.50;99.90;;;;;;4591160;19;19910;-35
2022/06/18 07:29:27;;;;;;;;;;;17.70;99.90;;;;;;4592122;19;19922;-32
2022/06/18 07:30:58;;;;;;;;;;;18.00;99.90;;;;;;4592218;19;19918;-33
2022/06/18 07:32:29;;;;;;;;;;;18.10;99.90;;;;;;4593836;19;20253;-32
2022/06/18 07:34:01;;;;;;;;;;;18.40;99.90;;;;;;4592203;19;19970;-38
2022/06/18 07:35:34;;;;;;;;;;;18.80;99.90;;;;;;4591045;19;19992;-34
2022/06/18 07:37:05;;;;;;;;;;;18.90;99.90;;;;;;4590405;19;20321;-31
2022/06/18 07:38:36;;;;;;;;;;;19.10;99.90;;;;;;4590759;19;19918;-35
2022/06/18 07:40:07;;;;;;;;;;;19.10;99.90;;;;;;4591487;19;19949;-32
2022/06/18 07:41:39;;;;;;;;;;;19.00;99.90;;;;;;4591925;19;19915;-32
2022/06/18 07:43:12;;;;;;;;;;;19.10;99.90;;;;;;4591834;19;20321;-30
2022/06/18 07:44:43;;;;;;;;;;;19.10;99.90;;;;;;4590857;19;19918;-32
2022/06/18 07:46:14;;;;;;;;;;;18.90;99.90;;;;;;4591722;19;19911;-32
2022/06/18 07:47:45;;;;;;;;;;;18.00;99.90;;;;;;4591412;19;19990;-33
2022/06/18 07:49:16;;;;;;;;;;;18.00;99.90;;;;;;4591694;19;19911;-35
2022/06/18 07:50:47;;;;;;;;;;;18.10;99.90;;;;;;4590194;19;19915;-33
2022/06/18 07:52:18;;;;;;;;;;;18.20;99.90;;;;;;4590782;19;20231;-33
2022/06/18 07:53:50;;;;;;;;;;;18.40;99.90;;;;;;4591193;19;20356;-32
2022/06/18 07:55:22;;;;;;;;;;;18.40;99.90;;;;;;4591599;19;19927;-32
2022/06/18 07:56:53;;;;;;;;;;;18.50;99.90;;;;;;4590618;19;20262;-33
2022/06/18 07:58:24;;;;;;;;;;;18.60;99.90;;;;;;4591241;19;19926;-32
2022/06/18 07:59:56;;;;;;;;;;;18.70;99.90;;;;;;4591541;19;19922;-32
2022/06/18 08:01:27;;;;;;;;;;;18.70;99.90;;;;;;4591616;19;19921;-34
2022/06/18 08:02:59;;;;;;;4.55;3.67;;;18.80;99.90;;;;;;4591431;19;19923;-38
2022/06/18 08:04:30;;;;;;;5.10;4.03;;;18.90;99.90;;;;;;4589549;19;20355;-34
2022/06/18 08:06:02;;;;;;;;;;;18.90;99.90;;;;;;4590623;19;20095;-36
2022/06/18 08:07:33;;;;;;;;;;;19.00;99.90;;;;;;4591850;19;19963;-33
2022/06/18 08:09:04;;;;;;;;;;;19.10;99.90;;;;;;4592051;19;19911;-32
2022/06/18 08:10:35;;;;;;;;;;;19.10;99.90;;;;;;4591197;19;19918;-38
2022/06/18 08:12:06;;;;;;;;;;;19.30;99.90;;;;;;4590321;19;19938;-33
2022/06/18 08:13:37;;;;;;;;;;;19.30;99.90;;;;;;4591217;19;19925;-34
2022/06/18 08:15:09;;;;;;;;;;;19.20;99.90;;;;;;4591855;19;19915;-33
2022/06/18 08:16:40;;;;;;;;;;;19.20;99.90;;;;;;4591253;19;19922;-33
2022/06/18 08:18:11;;;;;;;;;;;19.30;99.90;;;;;;4591147;19;20259;-36
2022/06/18 08:19:42;;;;;;;;;;;19.40;99.90;;;;;;4590390;19;19907;-33
2022/06/18 08:21:23;;;;;;;;;;;19.40;99.90;;;;;;4591200;19;19950;-32
2022/06/18 08:22:59;;;;;;;;;;;19.40;99.90;;;;;;4591103;19;19927;-32
2022/06/18 08:24:30;;;;;;;;;;;19.50;99.90;;;;;;4590201;19;19941;-33
2022/06/18 08:26:01;;;;;;;;;;;19.50;99.90;;;;;;4590868;19;19919;-32
2022/06/18 08:27:32;;;;;;;;;;;19.50;99.90;;;;;;4592001;19;19922;-32
2022/06/18 08:29:03;;;;;;;;;;;19.50;99.90;;;;;;4591263;19;19915;-36
2022/06/18 08:30:34;;;;;;;;;;;19.60;99.90;;;;;;4591038;19;19942;-35
2022/06/18 08:32:05;;;;;;;;;;;19.60;99.90;;;;;;4590251;19;19925;-33
2022/06/18 08:33:36;;;;;;;;;;;19.70;99.90;;;;;;4590118;19;19922;-32
2022/06/18 08:35:07;;;;;;;;;;;19.70;99.90;;;;;;4590888;19;20304;-32
2022/06/18 08:36:39;;;;;;;;;;;19.70;99.90;;;;;;4591958;19;19983;-33
2022/06/18 08:38:09;;;;;;;;;;;19.80;99.90;;;;;;4595890;19;20233;-33
2022/06/18 08:39:40;;;;;;;;;;;19.80;99.90;;;;;;4594357;19;19915;-32
2022/06/18 08:41:14;;;;;;;;;;;19.80;99.90;;;;;;4594287;19;20326;-35
2022/06/18 08:42:54;;;;;;;;;;;19.80;99.90;;;;;;4593311;19;20333;-35
2022/06/18 08:44:28;;;;;;;;;;;19.90;99.90;;;;;;4594267;19;19922;-32
2022/06/18 08:46:17;;;;;;;;;;;19.80;99.90;;;;;;4597037;19;19919;-33
2022/06/18 08:47:48;;;;;;;;;;;19.80;99.90;;;;;;4596321;19;19982;-29
2022/06/18 08:49:22;;;;;;;;;;;19.80;99.90;;;;;;4597813;19;19927;-31
2022/06/18 08:50:56;;;;;;;;;;;19.90;99.90;;;;;;4594611;19;19942;-35
2022/06/18 08:52:42;;;;;;;;;;;19.90;99.90;;;;;;4595421;19;19922;-33
2022/06/18 08:54:23;;;;;;;;;;;19.90;99.90;;;;;;4595253;19;20705;-36
2022/06/18 08:56:06;;;;;;;;;;;19.90;99.90;;;;;;4596148;19;19911;-33
2022/06/18 08:57:43;;;;;;;;;;;19.90;99.90;;;;;;4597238;19;19981;-33
2022/06/18 08:59:14;;;;;;;;;;;20.00;99.90;;;;;;4595631;19;19915;-32
2022/06/18 09:00:48;;;;;;;;;;;19.90;99.90;;;;;;4596815;19;19981;-33
2022/06/18 09:02:24;;;;;;;;;;;19.90;99.90;;;;;;4597455;19;19914;-27
2022/06/18 09:04:01;;;;;;;;;;;20.00;99.90;;;;;;4595335;19;19937;-36
2022/06/18 09:05:51;;;;;;;;;;;20.00;99.90;;;;;;4595208;19;20329;-35
2022/06/18 09:07:42;;;;;;;;;;;20.00;99.90;;;;;;4594400;19;19938;-34